createdAt,value
2018-03-20T00:00:42.913Z,85.03
2018-03-20T00:03:10.569Z,85.09
2018-03-20T00:05:38.135Z,85.46
2018-03-20T00:08:05.834Z,85.30
2018-03-20T00:10:33.413Z,85.36
2018-03-20T00:13:01.027Z,85.21
2018-03-20T00:15:28.661Z,85.11
2018-03-20T00:17:56.324Z,85.39
2018-03-20T00:20:23.909Z,85.75
2018-03-20T00:22:51.514Z,86.44
2018-03-20T00:25:19.255Z,86.65
2018-03-20T00:27:46.927Z,87.14
2018-03-20T00:30:14.560Z,87.37
2018-03-20T00:32:42.383Z,87.86
2018-03-20T00:35:10.061Z,88.49
2018-03-20T00:37:37.737Z,88.95
2018-03-20T00:40:05.299Z,88.67
2018-03-20T00:42:33.088Z,88.94
2018-03-20T00:45:00.745Z,88.90
2018-03-20T00:47:28.424Z,88.90
2018-03-20T00:49:56.214Z,89.79
2018-03-20T00:52:23.798Z,91.02
2018-03-20T00:54:51.564Z,92.84
2018-03-20T00:57:19.344Z,95.01
2018-03-20T00:59:47.010Z,95.98
2018-03-20T01:02:14.800Z,96.68
2018-03-20T01:04:42.461Z,96.61
2018-03-20T01:07:10.250Z,96.68
2018-03-20T01:09:37.920Z,96.65
2018-03-20T01:12:05.707Z,96.47
2018-03-20T01:14:33.433Z,96.18
2018-03-20T01:17:01.012Z,96.09
2018-03-20T01:19:28.713Z,95.54
2018-03-20T01:21:56.298Z,95.87
2018-03-20T01:24:23.979Z,95.78
2018-03-20T01:26:51.651Z,96.19
2018-03-20T01:29:19.250Z,96.62
2018-03-20T01:31:47.109Z,96.76
2018-03-20T01:34:14.886Z,96.95
2018-03-20T01:36:42.665Z,97.30
2018-03-20T01:39:10.549Z,97.73
2018-03-20T01:41:38.220Z,97.58
2018-03-20T01:44:05.893Z,98.21
2018-03-20T01:46:33.567Z,98.46
2018-03-20T01:49:01.453Z,98.56
2018-03-20T01:51:29.119Z,98.47
2018-03-20T01:53:56.846Z,98.96
2018-03-20T01:56:24.686Z,98.85
2018-03-20T01:58:52.334Z,99.11
2018-03-20T02:01:19.909Z,99.15
2018-03-20T02:03:47.710Z,99.15
2018-03-20T02:06:15.366Z,99.46
2018-03-20T02:08:43.165Z,99.58
2018-03-20T02:11:10.748Z,99.74
2018-03-20T02:13:38.366Z,99.70
2018-03-20T02:16:06.078Z,100.00
2018-03-20T02:18:33.866Z,99.97
2018-03-20T02:21:01.630Z,100.00
2018-03-20T02:23:29.313Z,100.00
2018-03-20T02:25:57.060Z,100.00
2018-03-20T02:28:24.873Z,100.00
2018-03-20T02:30:52.467Z,100.00
2018-03-20T02:33:20.116Z,100.00
2018-03-20T02:35:48.007Z,100.00
2018-03-20T02:38:15.778Z,100.00
2018-03-20T02:40:43.401Z,100.00
2018-03-20T02:43:11.174Z,100.00
2018-03-20T02:45:39.013Z,100.00
2018-03-20T02:48:06.599Z,100.00
2018-03-20T02:50:34.242Z,100.00
2018-03-20T02:53:01.928Z,100.00
2018-03-20T02:55:29.604Z,100.00
2018-03-20T02:57:57.488Z,100.00
2018-03-20T03:00:25.155Z,100.00
2018-03-20T03:02:52.943Z,100.00
2018-03-20T03:05:20.582Z,100.00
2018-03-20T03:07:48.174Z,100.00
2018-03-20T03:10:15.930Z,100.00
2018-03-20T03:12:43.752Z,100.00
2018-03-20T03:15:11.523Z,100.00
2018-03-20T03:17:39.181Z,100.00
2018-03-20T03:20:06.982Z,100.00
2018-03-20T03:22:34.646Z,100.00
2018-03-20T03:25:02.375Z,100.00
2018-03-20T03:27:30.211Z,100.00
2018-03-20T03:29:57.875Z,100.00
2018-03-20T03:32:25.559Z,100.00
2018-03-20T03:34:53.238Z,100.00
2018-03-20T03:37:20.914Z,100.00
2018-03-20T03:39:48.692Z,100.00
2018-03-20T03:42:16.364Z,100.00
2018-03-20T03:44:44.519Z,100.00
2018-03-20T03:47:12.095Z,100.00
2018-03-20T03:49:39.673Z,100.00
2018-03-20T03:52:07.378Z,100.00
2018-03-20T03:54:35.122Z,100.00
2018-03-20T03:57:02.704Z,100.00
2018-03-20T03:59:30.350Z,100.00
2018-03-20T04:01:58.075Z,100.00
2018-03-20T04:04:25.650Z,100.00
2018-03-20T04:06:53.476Z,100.00
2018-03-20T04:09:21.207Z,100.00
2018-03-20T04:11:48.934Z,100.00
2018-03-20T04:14:16.594Z,100.00
2018-03-20T04:16:44.329Z,100.00
2018-03-20T04:19:12.112Z,100.00
2018-03-20T04:21:39.892Z,100.00
2018-03-20T04:24:07.656Z,100.00
2018-03-20T04:26:35.456Z,100.00
2018-03-20T04:29:03.336Z,100.00
2018-03-20T04:31:31.064Z,100.00
2018-03-20T04:33:58.878Z,100.00
2018-03-20T04:36:26.661Z,100.00
2018-03-20T04:38:54.318Z,100.00
2018-03-20T04:41:21.899Z,100.00
2018-03-20T04:43:49.621Z,100.00
2018-03-20T04:46:17.466Z,100.00
2018-03-20T04:48:45.054Z,100.00
2018-03-20T04:51:12.808Z,100.00
2018-03-20T04:53:40.536Z,100.00
2018-03-20T04:56:08.271Z,100.00
2018-03-20T04:58:35.904Z,100.00
2018-03-20T05:01:03.545Z,100.00
2018-03-20T05:03:31.185Z,100.00
2018-03-20T05:05:58.970Z,100.00
2018-03-20T05:08:26.852Z,100.00
2018-03-20T05:10:54.630Z,99.84
2018-03-20T05:13:22.196Z,99.71
2018-03-20T05:15:49.975Z,99.59
2018-03-20T05:18:17.578Z,99.04
2018-03-20T05:23:50.693Z,98.66
2018-03-20T05:26:18.362Z,98.50
2018-03-20T05:28:45.980Z,98.53
2018-03-20T05:31:13.719Z,98.90
2018-03-20T05:33:41.599Z,99.18
2018-03-20T05:36:09.422Z,99.63
2018-03-20T05:38:37.258Z,100.00
2018-03-20T05:41:04.930Z,100.00
2018-03-20T05:43:32.623Z,100.00
2018-03-20T05:46:00.248Z,100.00
2018-03-20T05:51:46.532Z,100.00
2018-03-20T05:54:14.212Z,100.00
2018-03-20T05:56:41.871Z,100.00
2018-03-20T05:59:09.655Z,100.00
2018-03-20T06:01:37.437Z,100.00
2018-03-20T06:04:05.031Z,100.00
2018-03-20T06:06:32.776Z,100.00
2018-03-20T06:09:00.349Z,100.00
2018-03-20T06:11:28.138Z,100.00
2018-03-20T06:13:55.781Z,100.00
2018-03-20T06:16:23.356Z,100.00
2018-03-20T06:18:51.159Z,100.00
2018-03-20T06:21:18.941Z,99.52
2018-03-20T06:23:46.724Z,99.21
2018-03-20T06:26:14.491Z,99.07
2018-03-20T06:28:42.170Z,98.28
2018-03-20T06:31:09.750Z,97.83
2018-03-20T06:33:37.627Z,96.91
2018-03-20T06:36:05.220Z,96.27
2018-03-20T06:38:32.864Z,96.00
2018-03-20T06:41:00.547Z,95.43
2018-03-20T06:43:28.210Z,94.66
2018-03-20T06:45:55.886Z,94.38
2018-03-20T06:48:23.573Z,94.07
2018-03-20T06:50:51.238Z,93.57
2018-03-20T06:53:18.988Z,93.37
2018-03-20T06:55:46.811Z,92.95
2018-03-20T06:58:14.388Z,92.50
2018-03-20T07:00:42.049Z,92.16
2018-03-20T07:03:09.731Z,91.61
2018-03-20T07:05:37.496Z,91.50
2018-03-20T07:08:05.172Z,90.97
2018-03-20T07:10:32.743Z,90.55
2018-03-20T07:13:00.427Z,90.43
2018-03-20T07:15:28.232Z,90.17
2018-03-20T07:17:55.870Z,89.82
2018-03-20T07:20:23.664Z,89.47
2018-03-20T07:22:51.553Z,88.84
2018-03-20T07:25:19.278Z,88.67
2018-03-20T07:27:46.999Z,88.04
2018-03-20T07:30:14.881Z,87.63
2018-03-20T07:32:42.658Z,87.40
2018-03-20T07:35:10.324Z,87.28
2018-03-20T07:37:38.214Z,86.41
2018-03-20T07:40:05.869Z,85.99
2018-03-20T07:42:33.661Z,85.50
2018-03-20T07:45:01.308Z,85.68
2018-03-20T07:47:28.998Z,85.04
2018-03-20T07:49:56.688Z,84.25
2018-03-20T07:52:24.573Z,83.49
2018-03-20T07:54:52.350Z,83.30
2018-03-20T07:57:20.130Z,83.09
2018-03-20T07:59:47.951Z,81.96
2018-03-20T08:02:15.828Z,81.25
2018-03-20T08:04:43.564Z,80.71
2018-03-20T08:07:11.336Z,79.51
2018-03-20T08:09:39.118Z,79.58
2018-03-20T08:12:06.896Z,79.25
2018-03-20T08:14:34.525Z,78.30
2018-03-20T08:17:02.352Z,78.28
2018-03-20T08:19:30.038Z,78.14
2018-03-20T08:21:57.877Z,77.75
2018-03-20T08:24:25.614Z,77.52
2018-03-20T08:26:53.344Z,76.54
2018-03-20T08:29:21.073Z,76.28
2018-03-20T08:31:48.767Z,76.62
2018-03-20T08:34:16.458Z,75.14
2018-03-20T08:36:44.277Z,75.09
2018-03-20T08:39:11.933Z,75.06
2018-03-20T08:41:39.824Z,75.41
2018-03-20T08:44:07.596Z,74.06
2018-03-20T08:46:35.377Z,72.66
2018-03-20T08:49:03.040Z,73.14
2018-03-20T08:51:30.820Z,71.05
2018-03-20T08:53:58.592Z,70.30
2018-03-20T08:56:26.330Z,70.84
2018-03-20T08:58:54.020Z,72.11
2018-03-20T09:01:21.695Z,71.41
2018-03-20T09:03:49.513Z,71.73
2018-03-20T09:06:17.252Z,70.65
2018-03-20T09:08:44.864Z,69.99
2018-03-20T09:11:12.461Z,69.92
2018-03-20T09:13:40.107Z,70.33
2018-03-20T09:16:07.834Z,71.47
2018-03-20T09:18:35.408Z,69.24
2018-03-20T09:21:03.029Z,68.63
2018-03-20T09:23:30.694Z,69.86
2018-03-20T09:25:58.351Z,70.48
2018-03-20T09:28:26.060Z,69.71
2018-03-20T09:30:53.780Z,68.55
2018-03-20T09:33:21.397Z,68.36
2018-03-20T09:35:48.967Z,67.61
2018-03-20T09:38:16.565Z,66.80
2018-03-20T09:40:44.142Z,65.99
2018-03-20T09:43:11.899Z,65.25
2018-03-20T09:45:39.471Z,64.81
2018-03-20T09:48:07.123Z,65.66
2018-03-20T09:50:34.936Z,65.20
2018-03-20T09:53:02.613Z,63.81
2018-03-20T09:55:30.387Z,64.43
2018-03-20T09:57:58.066Z,63.29
2018-03-20T10:00:25.843Z,62.63
2018-03-20T10:02:53.508Z,63.05
2018-03-20T10:05:21.085Z,63.42
2018-03-20T10:07:48.725Z,63.33
2018-03-20T10:10:16.288Z,61.90
2018-03-20T10:12:44.016Z,62.12
2018-03-20T10:15:11.692Z,62.15
2018-03-20T10:17:39.355Z,61.42
2018-03-20T10:20:07.258Z,61.66
2018-03-20T10:22:34.913Z,61.05
2018-03-20T10:25:02.606Z,59.11
2018-03-20T10:27:30.369Z,59.07
2018-03-20T10:29:58.100Z,59.31
2018-03-20T10:32:25.820Z,59.97
2018-03-20T10:34:53.385Z,57.79
2018-03-20T10:37:21.060Z,57.23
2018-03-20T10:39:48.733Z,55.83
2018-03-20T10:42:16.483Z,56.03
2018-03-20T10:44:44.614Z,55.76
2018-03-20T10:47:12.291Z,55.56
2018-03-20T10:49:40.072Z,55.55
2018-03-20T10:52:07.632Z,53.58
2018-03-20T10:54:35.200Z,52.54
2018-03-20T10:57:03.090Z,51.96
2018-03-20T10:59:30.677Z,54.02
2018-03-20T11:02:03.970Z,54.53
2018-03-20T11:04:31.753Z,52.32
2018-03-20T11:06:59.321Z,52.97
2018-03-20T11:09:26.995Z,53.95
2018-03-20T11:11:54.652Z,52.82
2018-03-20T11:14:22.282Z,53.41
2018-03-20T11:16:49.986Z,53.76
2018-03-20T11:19:17.567Z,53.03
2018-03-20T11:21:45.376Z,51.90
2018-03-20T11:24:13.108Z,50.68
2018-03-20T11:26:40.753Z,51.17
2018-03-20T11:29:08.507Z,51.48
2018-03-20T11:31:36.183Z,52.34
2018-03-20T11:34:03.856Z,53.16
2018-03-20T11:36:31.536Z,51.44
2018-03-20T11:38:59.160Z,50.69
2018-03-20T11:41:26.772Z,51.58
2018-03-20T11:43:54.371Z,52.74
2018-03-20T11:46:22.183Z,52.62
2018-03-20T11:48:49.875Z,49.26
2018-03-20T11:51:17.691Z,50.39
2018-03-20T11:53:45.573Z,49.98
2018-03-20T11:56:13.182Z,48.96
2018-03-20T11:58:40.817Z,48.10
2018-03-20T12:01:08.693Z,49.10
2018-03-20T12:03:36.475Z,49.41
2018-03-20T12:06:04.249Z,48.82
2018-03-20T12:08:43.882Z,48.75
2018-03-20T12:11:11.575Z,51.07
2018-03-20T12:13:39.253Z,50.18
2018-03-20T12:16:07.008Z,50.42
2018-03-20T12:18:34.814Z,50.10
2018-03-20T12:21:02.413Z,50.56
2018-03-20T12:23:30.164Z,48.83
2018-03-20T12:25:57.898Z,48.68
2018-03-20T12:28:25.608Z,48.92
2018-03-20T12:30:53.350Z,49.56
2018-03-20T12:33:21.174Z,48.28
2018-03-20T12:35:48.844Z,48.45
2018-03-20T12:38:16.631Z,46.66
2018-03-20T12:40:44.308Z,48.46
2018-03-20T12:43:12.058Z,47.30
2018-03-20T12:45:39.859Z,46.97
2018-03-20T12:48:07.696Z,47.67
2018-03-20T12:50:35.518Z,47.48
2018-03-20T12:53:03.304Z,46.76
2018-03-20T12:55:31.069Z,47.77
2018-03-20T12:57:58.847Z,47.13
2018-03-20T13:00:26.627Z,47.65
2018-03-20T13:02:54.468Z,47.65
2018-03-20T13:05:22.182Z,46.74
2018-03-20T13:07:49.853Z,47.07
2018-03-20T13:10:17.534Z,47.42
2018-03-20T13:12:45.212Z,46.61
2018-03-20T13:15:12.800Z,45.93
2018-03-20T13:17:40.464Z,45.70
2018-03-20T13:20:08.101Z,46.22
2018-03-20T13:22:35.699Z,46.56
2018-03-20T13:25:03.471Z,46.24
2018-03-20T13:27:31.142Z,46.36
2018-03-20T13:29:58.823Z,47.29
2018-03-20T13:32:26.411Z,44.82
2018-03-20T13:34:54.072Z,45.53
2018-03-20T13:37:21.862Z,46.22
2018-03-20T13:39:49.483Z,45.38
2018-03-20T13:42:17.219Z,45.00
2018-03-20T13:44:44.873Z,44.89
2018-03-20T13:47:12.672Z,44.95
2018-03-20T13:49:40.344Z,44.21
2018-03-20T13:52:08.006Z,43.42
2018-03-20T13:54:35.621Z,42.75
2018-03-20T13:57:03.278Z,43.50
2018-03-20T13:59:30.992Z,42.15
2018-03-20T14:01:58.629Z,43.00
2018-03-20T14:04:26.292Z,44.73
2018-03-20T14:06:54.069Z,43.79
2018-03-20T14:09:21.706Z,43.44
2018-03-20T14:11:49.304Z,43.13
2018-03-20T14:14:16.985Z,43.27
2018-03-20T14:16:44.610Z,43.32
2018-03-20T14:19:12.239Z,43.26
2018-03-20T14:21:39.821Z,44.09
2018-03-20T14:24:07.465Z,43.55
2018-03-20T14:26:35.156Z,43.70
2018-03-20T14:29:02.945Z,44.27
2018-03-20T14:31:30.721Z,44.51
2018-03-20T14:33:58.388Z,43.83
2018-03-20T14:36:26.217Z,42.83
2018-03-20T14:38:53.853Z,43.01
2018-03-20T14:41:21.571Z,42.78
2018-03-20T14:43:49.209Z,43.80
2018-03-20T14:46:16.864Z,44.12
2018-03-20T14:48:44.659Z,43.59
2018-03-20T14:51:12.319Z,44.29
2018-03-20T14:53:41.944Z,44.45
2018-03-20T14:56:09.731Z,42.13
2018-03-20T14:58:37.405Z,41.80
2018-03-20T15:01:05.177Z,40.53
2018-03-20T15:03:32.962Z,40.56
2018-03-20T15:06:00.740Z,40.74
2018-03-20T15:08:28.325Z,42.38
2018-03-20T15:10:56.069Z,43.22
2018-03-20T15:13:23.867Z,42.92
2018-03-20T15:15:51.653Z,42.41
2018-03-20T15:18:19.344Z,42.43
2018-03-20T15:20:46.993Z,42.13
2018-03-20T15:23:14.624Z,43.21
2018-03-20T15:25:42.328Z,44.03
2018-03-20T15:28:10.023Z,45.55
2018-03-20T15:30:37.800Z,48.14
2018-03-20T15:33:05.574Z,50.25
2018-03-20T15:35:33.157Z,47.83
2018-03-20T15:38:00.926Z,46.14
2018-03-20T15:40:28.545Z,45.48
2018-03-20T15:42:56.118Z,44.57
2018-03-20T15:45:23.747Z,44.36
2018-03-20T15:47:51.416Z,44.99
2018-03-20T15:50:19.206Z,46.76
2018-03-20T15:52:46.980Z,47.01
2018-03-20T15:55:14.665Z,46.36
2018-03-20T15:57:42.421Z,45.73
2018-03-20T16:00:10.208Z,47.22
2018-03-20T16:02:37.884Z,48.30
2018-03-20T16:05:05.551Z,50.35
2018-03-20T16:07:33.236Z,51.77
2018-03-20T16:10:00.969Z,52.42
2018-03-20T16:12:28.654Z,50.35
2018-03-20T16:14:56.573Z,47.61
2018-03-20T16:17:24.156Z,47.86
2018-03-20T16:19:51.729Z,49.67
2018-03-20T16:22:19.452Z,51.74
2018-03-20T16:24:47.174Z,52.50
2018-03-20T16:27:14.843Z,52.15
2018-03-20T16:29:42.641Z,51.79
2018-03-20T16:32:10.514Z,52.08
2018-03-20T16:34:38.356Z,52.85
2018-03-20T16:37:06.163Z,53.24
2018-03-20T16:39:33.821Z,56.76
2018-03-20T16:42:01.384Z,53.45
2018-03-20T16:44:29.190Z,53.39
2018-03-20T16:46:56.862Z,51.08
2018-03-20T16:49:24.521Z,50.39
2018-03-20T16:51:52.318Z,52.89
2018-03-20T16:54:20.036Z,53.46
2018-03-20T16:56:47.637Z,53.38
2018-03-20T16:59:15.290Z,53.58
2018-03-20T17:01:43.012Z,54.79
2018-03-20T17:04:10.747Z,53.75
2018-03-20T17:06:38.325Z,53.97
2018-03-20T17:09:06.032Z,53.56
2018-03-20T17:11:33.724Z,53.52
2018-03-20T17:14:01.499Z,54.02
2018-03-20T17:16:29.354Z,54.57
2018-03-20T17:18:56.923Z,54.39
2018-03-20T17:21:24.730Z,54.21
2018-03-20T17:23:52.405Z,54.90
2018-03-20T17:26:20.026Z,54.26
2018-03-20T17:28:47.754Z,53.71
2018-03-20T17:31:15.333Z,54.24
2018-03-20T17:33:42.947Z,54.00
2018-03-20T17:36:10.682Z,53.35
2018-03-20T17:38:38.262Z,52.84
2018-03-20T17:41:06.730Z,53.09
2018-03-20T17:43:34.410Z,53.41
2018-03-20T17:46:02.707Z,53.51
2018-03-20T17:48:30.390Z,54.05
2018-03-20T17:50:58.711Z,54.94
2018-03-20T17:53:29.644Z,54.26
2018-03-20T17:55:57.447Z,54.69
2018-03-20T17:58:25.039Z,54.86
2018-03-20T18:00:52.864Z,55.10
2018-03-20T18:03:20.538Z,54.49
2018-03-20T18:05:48.219Z,53.61
2018-03-20T18:08:15.884Z,54.24
2018-03-20T18:10:43.493Z,55.00
2018-03-20T18:13:11.086Z,55.42
2018-03-20T18:15:38.805Z,56.42
2018-03-20T18:18:06.597Z,56.88
2018-03-20T18:20:34.268Z,57.18
2018-03-20T18:23:01.877Z,57.46
2018-03-20T18:25:29.502Z,58.02
2018-03-20T18:27:57.076Z,58.88
2018-03-20T18:30:24.759Z,59.71
2018-03-20T18:32:52.546Z,60.20
2018-03-20T18:35:20.328Z,61.40
2018-03-20T18:37:47.888Z,62.15
2018-03-20T18:40:15.780Z,62.76
2018-03-20T18:42:43.557Z,63.19
2018-03-20T18:45:11.118Z,63.65
2018-03-20T18:47:38.802Z,64.02
2018-03-20T18:50:06.533Z,64.51
2018-03-20T18:52:34.202Z,65.13
2018-03-20T18:55:02.035Z,65.26
2018-03-20T18:57:29.815Z,65.56
2018-03-20T18:59:57.599Z,65.50
2018-03-20T19:02:25.266Z,66.18
2018-03-20T19:04:52.938Z,66.15
2018-03-20T19:07:20.618Z,66.14
2018-03-20T19:09:48.293Z,66.46
2018-03-20T19:12:16.070Z,66.49
2018-03-20T19:14:43.846Z,66.76
2018-03-20T19:17:11.468Z,67.08
2018-03-20T19:19:39.192Z,66.74
2018-03-20T19:22:06.983Z,66.94
2018-03-20T19:24:34.757Z,67.39
2018-03-20T19:27:02.599Z,67.69
2018-03-20T19:29:30.209Z,68.08
2018-03-20T19:31:57.919Z,68.90
2018-03-20T19:34:25.553Z,68.74
2018-03-20T19:36:53.338Z,68.76
2018-03-20T19:39:21.003Z,68.77
2018-03-20T19:41:48.638Z,69.33
2018-03-20T19:44:16.256Z,69.48
2018-03-20T19:46:43.935Z,69.47
2018-03-20T19:49:11.613Z,69.61
2018-03-20T19:51:39.390Z,69.89
2018-03-20T19:54:06.960Z,70.14
2018-03-20T19:56:34.845Z,70.25
2018-03-20T19:59:02.562Z,70.90
2018-03-20T20:01:30.399Z,71.62
2018-03-20T20:03:58.122Z,71.61
2018-03-20T20:06:25.808Z,71.86
2018-03-20T20:08:53.631Z,71.97
2018-03-20T20:11:21.373Z,72.33
2018-03-20T20:13:49.064Z,72.80
2018-03-20T20:16:16.706Z,73.00
2018-03-20T20:18:44.433Z,73.79
2018-03-20T20:21:12.011Z,73.69
2018-03-20T20:23:39.685Z,74.20
2018-03-20T20:26:07.253Z,74.26
2018-03-20T20:28:34.876Z,74.72
2018-03-20T20:31:02.488Z,74.81
2018-03-20T20:33:30.281Z,75.45
2018-03-20T20:35:57.952Z,75.39
2018-03-20T20:38:25.632Z,75.62
2018-03-20T20:40:53.425Z,76.20
2018-03-20T20:43:21.096Z,76.84
2018-03-20T20:45:48.675Z,77.07
2018-03-20T20:48:16.439Z,77.37
2018-03-20T20:50:44.318Z,77.77
2018-03-20T20:53:11.992Z,78.19
2018-03-20T20:55:39.552Z,78.63
2018-03-20T20:58:07.238Z,79.13
2018-03-20T21:00:34.805Z,79.73
2018-03-20T21:03:02.486Z,79.85
2018-03-20T21:05:30.123Z,79.88
2018-03-20T21:07:57.719Z,80.26
2018-03-20T21:10:25.518Z,80.63
2018-03-20T21:12:53.179Z,80.95
2018-03-20T21:15:20.865Z,80.81
2018-03-20T21:17:48.650Z,80.94
2018-03-20T21:20:16.321Z,81.16
2018-03-20T21:22:44.048Z,81.88
2018-03-20T21:25:11.625Z,82.00
2018-03-20T21:27:39.451Z,82.19
2018-03-20T21:30:07.117Z,82.61
2018-03-20T21:32:34.800Z,83.16
2018-03-20T21:35:02.434Z,83.26
2018-03-20T21:37:30.252Z,83.77
2018-03-20T21:39:58.034Z,84.06
2018-03-20T21:42:25.913Z,84.70
2018-03-20T21:44:53.586Z,84.76
2018-03-20T21:47:21.266Z,84.38
2018-03-20T21:49:48.939Z,84.34
2018-03-20T21:52:16.718Z,84.62
2018-03-20T21:54:44.279Z,85.44
2018-03-20T21:57:12.066Z,85.60
2018-03-20T21:59:39.676Z,86.51
2018-03-20T22:02:07.472Z,86.80
2018-03-20T22:04:35.295Z,87.28
2018-03-20T22:07:02.968Z,87.27
2018-03-20T22:09:30.645Z,87.46
2018-03-20T22:11:58.495Z,87.94
2018-03-20T22:14:26.104Z,88.47
2018-03-20T22:16:53.828Z,89.23
2018-03-20T22:19:21.658Z,89.43
2018-03-20T22:21:49.269Z,89.25
2018-03-20T22:24:17.110Z,89.67
2018-03-20T22:26:44.776Z,89.76
2018-03-20T22:29:12.632Z,90.41
2018-03-20T22:31:40.327Z,91.71
2018-03-20T22:34:08.104Z,92.74
2018-03-20T22:36:35.793Z,93.15
2018-03-20T22:39:03.483Z,93.40
2018-03-20T22:41:31.191Z,94.25
2018-03-20T22:43:58.920Z,93.74
2018-03-20T22:46:26.701Z,93.96
2018-03-20T22:48:54.378Z,94.40
2018-03-20T22:51:22.038Z,94.79
2018-03-20T22:53:52.597Z,94.92
2018-03-20T22:56:20.228Z,93.07
2018-03-20T22:58:47.905Z,93.49
2018-03-20T23:01:15.598Z,94.00
2018-03-20T23:03:43.401Z,94.43
2018-03-20T23:06:11.056Z,95.23
2018-03-20T23:08:38.752Z,95.41
2018-03-20T23:11:06.327Z,95.71
2018-03-20T23:13:33.929Z,95.92
2018-03-20T23:16:01.586Z,95.96
2018-03-20T23:18:29.191Z,96.32
2018-03-20T23:20:56.808Z,96.53
2018-03-20T23:23:24.495Z,96.66
2018-03-20T23:25:52.169Z,96.43
2018-03-20T23:28:19.946Z,96.60
2018-03-20T23:30:47.716Z,96.97
2018-03-20T23:33:15.398Z,97.69
2018-03-20T23:35:43.064Z,97.74
2018-03-20T23:38:10.935Z,97.77
2018-03-20T23:40:38.613Z,97.84
2018-03-20T23:43:06.203Z,98.02
2018-03-20T23:45:33.798Z,98.16
2018-03-20T23:48:01.369Z,98.96
2018-03-20T23:50:28.982Z,99.69
2018-03-20T23:52:56.563Z,99.01
2018-03-20T23:55:24.311Z,96.64
2018-03-20T23:57:51.888Z,94.57
